sensor_id;sensor_type;location;lat;lon;timestamp;temperature;humidity
20672;DHT22;10495;50.922;4.760;2022-11-25T00:00:46;12.20;87.60
20672;DHT22;10495;50.922;4.760;2022-11-25T00:03:12;12.40;87.10
20672;DHT22;10495;50.922;4.760;2022-11-25T00:05:41;12.40;87.10
20672;DHT22;10495;50.922;4.760;2022-11-25T00:08:09;12.20;87.30
20672;DHT22;10495;50.922;4.760;2022-11-25T00:10:35;12.10;87.50
20672;DHT22;10495;50.922;4.760;2022-11-25T00:13:01;12.40;86.80
20672;DHT22;10495;50.922;4.760;2022-11-25T00:15:26;12.40;86.90
20672;DHT22;10495;50.922;4.760;2022-11-25T00:17:52;12.40;87.20
20672;DHT22;10495;50.922;4.760;2022-11-25T00:20:18;12.40;87.00
20672;DHT22;10495;50.922;4.760;2022-11-25T00:22:46;12.50;86.20
20672;DHT22;10495;50.922;4.760;2022-11-25T00:25:12;12.50;86.80
20672;DHT22;10495;50.922;4.760;2022-11-25T00:27:37;12.50;86.30
20672;DHT22;10495;50.922;4.760;2022-11-25T00:30:04;12.40;86.70
20672;DHT22;10495;50.922;4.760;2022-11-25T00:32:29;12.40;86.80
20672;DHT22;10495;50.922;4.760;2022-11-25T00:34:55;12.30;87.00
20672;DHT22;10495;50.922;4.760;2022-11-25T00:37:20;12.30;86.90
20672;DHT22;10495;50.922;4.760;2022-11-25T00:39:46;12.30;87.00
20672;DHT22;10495;50.922;4.760;2022-11-25T00:42:12;12.20;87.00
20672;DHT22;10495;50.922;4.760;2022-11-25T00:44:56;12.20;87.70
20672;DHT22;10495;50.922;4.760;2022-11-25T00:47:22;12.40;87.00
20672;DHT22;10495;50.922;4.760;2022-11-25T00:49:52;12.40;87.20
20672;DHT22;10495;50.922;4.760;2022-11-25T00:52:21;12.40;86.80
20672;DHT22;10495;50.922;4.760;2022-11-25T00:54:47;12.40;86.60
20672;DHT22;10495;50.922;4.760;2022-11-25T00:57:15;12.30;87.00
20672;DHT22;10495;50.922;4.760;2022-11-25T00:59:40;12.40;86.80
20672;DHT22;10495;50.922;4.760;2022-11-25T01:02:06;12.50;86.90
20672;DHT22;10495;50.922;4.760;2022-11-25T01:04:32;12.30;87.00
20672;DHT22;10495;50.922;4.760;2022-11-25T01:06:58;12.40;87.10
20672;DHT22;10495;50.922;4.760;2022-11-25T01:09:24;12.40;86.90
20672;DHT22;10495;50.922;4.760;2022-11-25T01:11:51;12.60;87.10
20672;DHT22;10495;50.922;4.760;2022-11-25T01:14:17;12.50;87.20
20672;DHT22;10495;50.922;4.760;2022-11-25T01:16:43;12.40;87.70
20672;DHT22;10495;50.922;4.760;2022-11-25T01:19:10;12.30;88.70
20672;DHT22;10495;50.922;4.760;2022-11-25T01:21:36;12.60;88.40
20672;DHT22;10495;50.922;4.760;2022-11-25T01:24:03;12.50;86.90
20672;DHT22;10495;50.922;4.760;2022-11-25T01:26:33;12.30;87.00
20672;DHT22;10495;50.922;4.760;2022-11-25T01:29:01;12.30;86.80
20672;DHT22;10495;50.922;4.760;2022-11-25T01:31:29;12.20;87.20
20672;DHT22;10495;50.922;4.760;2022-11-25T01:33:58;12.30;86.90
20672;DHT22;10495;50.922;4.760;2022-11-25T01:36:24;12.20;87.00
20672;DHT22;10495;50.922;4.760;2022-11-25T01:38:51;12.00;87.40
20672;DHT22;10495;50.922;4.760;2022-11-25T01:41:19;12.00;87.60
20672;DHT22;10495;50.922;4.760;2022-11-25T01:46:47;11.80;88.10
20672;DHT22;10495;50.922;4.760;2022-11-25T01:49:25;11.70;88.90
20672;DHT22;10495;50.922;4.760;2022-11-25T01:54:23;11.60;88.90
20672;DHT22;10495;50.922;4.760;2022-11-25T01:56:55;11.70;88.90
20672;DHT22;10495;50.922;4.760;2022-11-25T01:59:21;11.50;89.60
20672;DHT22;10495;50.922;4.760;2022-11-25T02:01:48;11.40;89.60
20672;DHT22;10495;50.922;4.760;2022-11-25T02:04:15;11.30;89.70
20672;DHT22;10495;50.922;4.760;2022-11-25T02:06:51;11.30;90.00
20672;DHT22;10495;50.922;4.760;2022-11-25T02:09:17;11.20;90.00
20672;DHT22;10495;50.922;4.760;2022-11-25T02:11:45;11.10;90.20
20672;DHT22;10495;50.922;4.760;2022-11-25T02:14:12;11.10;90.10
20672;DHT22;10495;50.922;4.760;2022-11-25T02:16:38;11.20;90.30
20672;DHT22;10495;50.922;4.760;2022-11-25T02:19:06;11.20;90.20
20672;DHT22;10495;50.922;4.760;2022-11-25T02:21:42;11.20;90.10
20672;DHT22;10495;50.922;4.760;2022-11-25T02:24:30;11.60;89.50
20672;DHT22;10495;50.922;4.760;2022-11-25T02:26:57;11.80;88.20
20672;DHT22;10495;50.922;4.760;2022-11-25T02:29:22;11.80;88.00
20672;DHT22;10495;50.922;4.760;2022-11-25T02:31:48;11.60;87.90
20672;DHT22;10495;50.922;4.760;2022-11-25T02:34:15;11.20;89.60
20672;DHT22;10495;50.922;4.760;2022-11-25T02:36:41;11.00;90.10
20672;DHT22;10495;50.922;4.760;2022-11-25T02:39:07;10.80;90.70
20672;DHT22;10495;50.922;4.760;2022-11-25T02:41:40;10.60;90.90
20672;DHT22;10495;50.922;4.760;2022-11-25T02:44:08;10.60;90.90
20672;DHT22;10495;50.922;4.760;2022-11-25T02:46:34;10.50;91.30
20672;DHT22;10495;50.922;4.760;2022-11-25T02:49:00;10.20;91.70
20672;DHT22;10495;50.922;4.760;2022-11-25T02:51:28;10.20;91.90
20672;DHT22;10495;50.922;4.760;2022-11-25T02:53:54;10.30;91.80
20672;DHT22;10495;50.922;4.760;2022-11-25T02:56:23;10.30;91.80
20672;DHT22;10495;50.922;4.760;2022-11-25T02:58:49;10.30;91.60
20672;DHT22;10495;50.922;4.760;2022-11-25T03:01:14;10.30;91.60
20672;DHT22;10495;50.922;4.760;2022-11-25T03:03:40;10.30;91.60
20672;DHT22;10495;50.922;4.760;2022-11-25T03:06:07;10.40;91.50
20672;DHT22;10495;50.922;4.760;2022-11-25T03:08:32;10.50;91.40
20672;DHT22;10495;50.922;4.760;2022-11-25T03:10:58;10.50;91.30
20672;DHT22;10495;50.922;4.760;2022-11-25T03:13:24;10.50;91.20
20672;DHT22;10495;50.922;4.760;2022-11-25T03:15:49;10.50;91.10
20672;DHT22;10495;50.922;4.760;2022-11-25T03:18:15;10.50;91.40
20672;DHT22;10495;50.922;4.760;2022-11-25T03:20:40;10.50;91.20
20672;DHT22;10495;50.922;4.760;2022-11-25T03:23:06;10.40;91.40
20672;DHT22;10495;50.922;4.760;2022-11-25T03:25:33;10.50;91.20
20672;DHT22;10495;50.922;4.760;2022-11-25T03:27:59;10.60;91.00
20672;DHT22;10495;50.922;4.760;2022-11-25T03:30:26;10.60;91.00
20672;DHT22;10495;50.922;4.760;2022-11-25T03:32:52;10.70;90.70
20672;DHT22;10495;50.922;4.760;2022-11-25T03:35:17;10.50;90.70
20672;DHT22;10495;50.922;4.760;2022-11-25T03:37:43;10.30;91.10
20672;DHT22;10495;50.922;4.760;2022-11-25T03:40:11;10.20;91.20
20672;DHT22;10495;50.922;4.760;2022-11-25T03:42:37;10.10;91.40
20672;DHT22;10495;50.922;4.760;2022-11-25T03:45:03;10.20;91.40
20672;DHT22;10495;50.922;4.760;2022-11-25T03:47:29;10.30;91.10
20672;DHT22;10495;50.922;4.760;2022-11-25T03:49:55;10.20;91.10
20672;DHT22;10495;50.922;4.760;2022-11-25T03:52:20;10.10;91.50
20672;DHT22;10495;50.922;4.760;2022-11-25T03:54:46;10.10;91.40
20672;DHT22;10495;50.922;4.760;2022-11-25T03:57:11;10.00;91.60
20672;DHT22;10495;50.922;4.760;2022-11-25T03:59:37;9.90;91.90
20672;DHT22;10495;50.922;4.760;2022-11-25T04:02:03;9.90;92.00
20672;DHT22;10495;50.922;4.760;2022-11-25T04:04:28;9.80;92.20
20672;DHT22;10495;50.922;4.760;2022-11-25T04:06:54;9.90;92.40
20672;DHT22;10495;50.922;4.760;2022-11-25T04:09:20;9.90;92.20
20672;DHT22;10495;50.922;4.760;2022-11-25T04:11:45;10.00;92.40
20672;DHT22;10495;50.922;4.760;2022-11-25T04:14:30;9.90;92.50
20672;DHT22;10495;50.922;4.760;2022-11-25T04:16:56;9.90;92.50
20672;DHT22;10495;50.922;4.760;2022-11-25T04:19:22;10.00;92.40
20672;DHT22;10495;50.922;4.760;2022-11-25T04:21:48;10.10;92.30
20672;DHT22;10495;50.922;4.760;2022-11-25T04:24:13;10.00;92.50
20672;DHT22;10495;50.922;4.760;2022-11-25T04:26:39;10.00;92.50
20672;DHT22;10495;50.922;4.760;2022-11-25T04:29:05;10.00;92.50
20672;DHT22;10495;50.922;4.760;2022-11-25T04:31:31;9.90;92.40
20672;DHT22;10495;50.922;4.760;2022-11-25T04:33:56;9.80;92.60
20672;DHT22;10495;50.922;4.760;2022-11-25T04:36:22;9.90;92.50
20672;DHT22;10495;50.922;4.760;2022-11-25T04:38:48;10.00;92.50
20672;DHT22;10495;50.922;4.760;2022-11-25T04:41:13;10.00;92.20
20672;DHT22;10495;50.922;4.760;2022-11-25T04:43:39;10.00;92.20
20672;DHT22;10495;50.922;4.760;2022-11-25T04:46:05;9.80;92.20
20672;DHT22;10495;50.922;4.760;2022-11-25T04:48:31;9.80;92.60
20672;DHT22;10495;50.922;4.760;2022-11-25T04:50:56;9.70;92.70
20672;DHT22;10495;50.922;4.760;2022-11-25T04:53:22;9.70;92.70
20672;DHT22;10495;50.922;4.760;2022-11-25T04:55:48;9.70;92.80
20672;DHT22;10495;50.922;4.760;2022-11-25T04:58:14;9.70;92.90
20672;DHT22;10495;50.922;4.760;2022-11-25T05:00:59;9.80;92.80
20672;DHT22;10495;50.922;4.760;2022-11-25T05:03:25;9.70;92.80
20672;DHT22;10495;50.922;4.760;2022-11-25T05:05:50;9.70;93.00
20672;DHT22;10495;50.922;4.760;2022-11-25T05:08:16;9.60;92.90
20672;DHT22;10495;50.922;4.760;2022-11-25T05:10:41;9.60;92.70
20672;DHT22;10495;50.922;4.760;2022-11-25T05:13:07;9.70;92.70
20672;DHT22;10495;50.922;4.760;2022-11-25T05:15:33;9.60;92.70
20672;DHT22;10495;50.922;4.760;2022-11-25T05:17:58;9.60;92.70
20672;DHT22;10495;50.922;4.760;2022-11-25T05:20:24;9.60;92.80
20672;DHT22;10495;50.922;4.760;2022-11-25T05:22:49;9.50;92.70
20672;DHT22;10495;50.922;4.760;2022-11-25T05:25:15;9.60;92.90
20672;DHT22;10495;50.922;4.760;2022-11-25T05:27:40;9.70;92.60
20672;DHT22;10495;50.922;4.760;2022-11-25T05:30:07;9.70;92.40
20672;DHT22;10495;50.922;4.760;2022-11-25T05:32:33;9.70;92.50
20672;DHT22;10495;50.922;4.760;2022-11-25T05:34:58;9.60;92.50
20672;DHT22;10495;50.922;4.760;2022-11-25T05:37:24;9.50;92.90
20672;DHT22;10495;50.922;4.760;2022-11-25T05:39:49;9.40;92.90
20672;DHT22;10495;50.922;4.760;2022-11-25T05:42:15;9.40;92.90
20672;DHT22;10495;50.922;4.760;2022-11-25T05:44:41;9.40;93.10
20672;DHT22;10495;50.922;4.760;2022-11-25T05:47:06;9.40;93.00
20672;DHT22;10495;50.922;4.760;2022-11-25T05:49:32;9.30;93.00
20672;DHT22;10495;50.922;4.760;2022-11-25T05:51:57;9.50;93.00
20672;DHT22;10495;50.922;4.760;2022-11-25T05:54:25;9.60;92.40
20672;DHT22;10495;50.922;4.760;2022-11-25T05:56:51;9.50;92.60
20672;DHT22;10495;50.922;4.760;2022-11-25T05:59:16;9.40;92.70
20672;DHT22;10495;50.922;4.760;2022-11-25T06:01:42;9.40;92.80
20672;DHT22;10495;50.922;4.760;2022-11-25T06:04:08;9.30;93.00
20672;DHT22;10495;50.922;4.760;2022-11-25T06:06:34;9.30;93.00
20672;DHT22;10495;50.922;4.760;2022-11-25T06:09:00;9.40;92.90
20672;DHT22;10495;50.922;4.760;2022-11-25T06:11:26;9.20;93.10
20672;DHT22;10495;50.922;4.760;2022-11-25T06:13:51;9.20;93.30
20672;DHT22;10495;50.922;4.760;2022-11-25T06:16:20;9.30;93.10
20672;DHT22;10495;50.922;4.760;2022-11-25T06:18:46;9.20;93.00
20672;DHT22;10495;50.922;4.760;2022-11-25T06:21:13;9.30;93.10
20672;DHT22;10495;50.922;4.760;2022-11-25T06:23:39;9.40;92.60
20672;DHT22;10495;50.922;4.760;2022-11-25T06:26:07;9.30;92.70
20672;DHT22;10495;50.922;4.760;2022-11-25T06:28:32;9.20;92.80
20672;DHT22;10495;50.922;4.760;2022-11-25T06:31:10;9.20;93.00
20672;DHT22;10495;50.922;4.760;2022-11-25T06:33:36;9.10;92.80
20672;DHT22;10495;50.922;4.760;2022-11-25T06:36:05;9.10;92.90
20672;DHT22;10495;50.922;4.760;2022-11-25T06:38:31;9.10;93.00
20672;DHT22;10495;50.922;4.760;2022-11-25T06:41:01;9.00;93.10
20672;DHT22;10495;50.922;4.760;2022-11-25T06:43:27;8.90;93.10
20672;DHT22;10495;50.922;4.760;2022-11-25T06:45:52;9.10;93.00
20672;DHT22;10495;50.922;4.760;2022-11-25T06:48:18;9.10;92.90
20672;DHT22;10495;50.922;4.760;2022-11-25T06:50:44;9.10;92.70
20672;DHT22;10495;50.922;4.760;2022-11-25T06:53:09;9.10;92.70
20672;DHT22;10495;50.922;4.760;2022-11-25T06:55:35;8.90;93.00
20672;DHT22;10495;50.922;4.760;2022-11-25T06:58:00;8.90;93.30
20672;DHT22;10495;50.922;4.760;2022-11-25T07:00:26;9.00;93.20
20672;DHT22;10495;50.922;4.760;2022-11-25T07:02:51;8.90;93.30
20672;DHT22;10495;50.922;4.760;2022-11-25T07:05:17;8.90;93.30
20672;DHT22;10495;50.922;4.760;2022-11-25T07:07:42;8.90;93.20
20672;DHT22;10495;50.922;4.760;2022-11-25T07:10:08;8.90;93.20
20672;DHT22;10495;50.922;4.760;2022-11-25T07:12:34;8.90;93.10
20672;DHT22;10495;50.922;4.760;2022-11-25T07:14:59;8.90;93.20
20672;DHT22;10495;50.922;4.760;2022-11-25T07:17:25;8.90;93.20
20672;DHT22;10495;50.922;4.760;2022-11-25T07:19:51;8.90;93.10
20672;DHT22;10495;50.922;4.760;2022-11-25T07:22:16;9.00;93.10
20672;DHT22;10495;50.922;4.760;2022-11-25T07:24:42;9.10;92.90
20672;DHT22;10495;50.922;4.760;2022-11-25T07:27:07;9.10;93.10
20672;DHT22;10495;50.922;4.760;2022-11-25T07:29:33;9.00;93.00
20672;DHT22;10495;50.922;4.760;2022-11-25T07:32:00;9.00;93.10
20672;DHT22;10495;50.922;4.760;2022-11-25T07:34:25;9.10;93.20
20672;DHT22;10495;50.922;4.760;2022-11-25T07:36:51;9.20;92.90
20672;DHT22;10495;50.922;4.760;2022-11-25T07:39:20;9.30;92.90
20672;DHT22;10495;50.922;4.760;2022-11-25T07:41:50;9.30;92.80
20672;DHT22;10495;50.922;4.760;2022-11-25T07:44:16;9.30;92.70
20672;DHT22;10495;50.922;4.760;2022-11-25T07:46:44;9.40;92.80
20672;DHT22;10495;50.922;4.760;2022-11-25T07:49:15;9.20;92.90
20672;DHT22;10495;50.922;4.760;2022-11-25T07:51:49;9.30;92.90
20672;DHT22;10495;50.922;4.760;2022-11-25T07:54:15;9.30;92.80
20672;DHT22;10495;50.922;4.760;2022-11-25T07:56:42;9.30;92.90
20672;DHT22;10495;50.922;4.760;2022-11-25T07:59:15;9.30;93.00
20672;DHT22;10495;50.922;4.760;2022-11-25T08:01:41;9.40;92.80
20672;DHT22;10495;50.922;4.760;2022-11-25T08:04:08;9.50;92.80
20672;DHT22;10495;50.922;4.760;2022-11-25T08:06:37;9.50;92.70
20672;DHT22;10495;50.922;4.760;2022-11-25T08:09:03;9.60;92.70
20672;DHT22;10495;50.922;4.760;2022-11-25T08:11:30;9.60;92.70
20672;DHT22;10495;50.922;4.760;2022-11-25T08:13:57;9.80;92.50
20672;DHT22;10495;50.922;4.760;2022-11-25T08:16:25;9.90;92.10
20672;DHT22;10495;50.922;4.760;2022-11-25T08:18:52;9.70;92.50
20672;DHT22;10495;50.922;4.760;2022-11-25T08:21:18;9.70;92.70
20672;DHT22;10495;50.922;4.760;2022-11-25T08:23:45;9.90;92.80
20672;DHT22;10495;50.922;4.760;2022-11-25T08:28:44;10.40;92.20
20672;DHT22;10495;50.922;4.760;2022-11-25T08:31:15;10.50;92.00
20672;DHT22;10495;50.922;4.760;2022-11-25T08:33:42;11.00;91.80
20672;DHT22;10495;50.922;4.760;2022-11-25T08:36:12;11.30;90.90
20672;DHT22;10495;50.922;4.760;2022-11-25T08:38:39;11.20;90.40
20672;DHT22;10495;50.922;4.760;2022-11-25T08:41:23;11.20;90.80
20672;DHT22;10495;50.922;4.760;2022-11-25T08:43:49;11.60;90.00
20672;DHT22;10495;50.922;4.760;2022-11-25T08:46:18;11.60;90.00
20672;DHT22;10495;50.922;4.760;2022-11-25T08:48:44;11.70;90.00
20672;DHT22;10495;50.922;4.760;2022-11-25T08:51:16;11.70;89.50
20672;DHT22;10495;50.922;4.760;2022-11-25T08:53:43;11.60;89.80
20672;DHT22;10495;50.922;4.760;2022-11-25T08:56:09;11.90;89.80
20672;DHT22;10495;50.922;4.760;2022-11-25T08:58:35;11.90;89.60
20672;DHT22;10495;50.922;4.760;2022-11-25T09:01:01;12.00;89.30
20672;DHT22;10495;50.922;4.760;2022-11-25T09:03:30;12.20;87.40
20672;DHT22;10495;50.922;4.760;2022-11-25T09:05:56;12.30;87.90
20672;DHT22;10495;50.922;4.760;2022-11-25T09:08:21;12.40;87.80
20672;DHT22;10495;50.922;4.760;2022-11-25T09:10:47;12.80;87.20
20672;DHT22;10495;50.922;4.760;2022-11-25T09:13:13;13.00;87.20
20672;DHT22;10495;50.922;4.760;2022-11-25T09:15:38;13.20;85.60
20672;DHT22;10495;50.922;4.760;2022-11-25T09:18:06;13.10;84.30
20672;DHT22;10495;50.922;4.760;2022-11-25T09:20:39;13.10;85.30
20672;DHT22;10495;50.922;4.760;2022-11-25T09:23:06;13.10;83.50
20672;DHT22;10495;50.922;4.760;2022-11-25T09:25:32;12.90;84.60
20672;DHT22;10495;50.922;4.760;2022-11-25T09:27:58;12.80;84.60
20672;DHT22;10495;50.922;4.760;2022-11-25T09:30:24;12.50;85.20
20672;DHT22;10495;50.922;4.760;2022-11-25T09:32:51;12.40;85.40
20672;DHT22;10495;50.922;4.760;2022-11-25T09:35:18;12.10;86.10
20672;DHT22;10495;50.922;4.760;2022-11-25T09:37:44;11.90;87.50
20672;DHT22;10495;50.922;4.760;2022-11-25T09:40:25;11.90;87.10
20672;DHT22;10495;50.922;4.760;2022-11-25T09:42:54;11.90;86.40
20672;DHT22;10495;50.922;4.760;2022-11-25T09:48:47;11.80;86.70
20672;DHT22;10495;50.922;4.760;2022-11-25T09:51:21;11.70;87.30
20672;DHT22;10495;50.922;4.760;2022-11-25T09:54:19;11.70;87.80
20672;DHT22;10495;50.922;4.760;2022-11-25T09:56:52;11.80;87.60
20672;DHT22;10495;50.922;4.760;2022-11-25T09:59:40;11.70;87.30
20672;DHT22;10495;50.922;4.760;2022-11-25T10:02:16;11.70;87.60
20672;DHT22;10495;50.922;4.760;2022-11-25T10:04:51;11.70;87.60
20672;DHT22;10495;50.922;4.760;2022-11-25T10:07:23;11.60;88.20
20672;DHT22;10495;50.922;4.760;2022-11-25T10:09:53;11.50;88.40
20672;DHT22;10495;50.922;4.760;2022-11-25T10:12:29;11.60;88.30
20672;DHT22;10495;50.922;4.760;2022-11-25T10:15:05;11.70;88.10
20672;DHT22;10495;50.922;4.760;2022-11-25T10:17:34;11.80;87.60
20672;DHT22;10495;50.922;4.760;2022-11-25T10:20:25;11.70;87.90
20672;DHT22;10495;50.922;4.760;2022-11-25T10:23:02;11.80;87.90
20672;DHT22;10495;50.922;4.760;2022-11-25T10:25:31;11.70;87.70
20672;DHT22;10495;50.922;4.760;2022-11-25T10:30:36;11.80;87.90
20672;DHT22;10495;50.922;4.760;2022-11-25T10:33:19;11.90;87.30
20672;DHT22;10495;50.922;4.760;2022-11-25T10:35:51;12.20;85.90
20672;DHT22;10495;50.922;4.760;2022-11-25T10:38:44;12.10;85.50
20672;DHT22;10495;50.922;4.760;2022-11-25T10:41:14;12.10;85.00
20672;DHT22;10495;50.922;4.760;2022-11-25T10:43:41;12.20;84.20
20672;DHT22;10495;50.922;4.760;2022-11-25T10:49:14;12.20;84.00
20672;DHT22;10495;50.922;4.760;2022-11-25T10:51:48;12.20;83.80
20672;DHT22;10495;50.922;4.760;2022-11-25T10:56:50;12.00;84.50
20672;DHT22;10495;50.922;4.760;2022-11-25T10:59:29;12.00;84.80
20672;DHT22;10495;50.922;4.760;2022-11-25T11:02:22;12.10;84.80
20672;DHT22;10495;50.922;4.760;2022-11-25T11:05:16;11.90;84.30
20672;DHT22;10495;50.922;4.760;2022-11-25T11:07:44;12.00;84.90
20672;DHT22;10495;50.922;4.760;2022-11-25T11:15:20;12.10;84.20
20672;DHT22;10495;50.922;4.760;2022-11-25T11:17:46;12.10;84.50
20672;DHT22;10495;50.922;4.760;2022-11-25T11:23:01;12.20;83.70
20672;DHT22;10495;50.922;4.760;2022-11-25T11:25:32;12.40;82.50
20672;DHT22;10495;50.922;4.760;2022-11-25T11:27:59;12.50;81.70
20672;DHT22;10495;50.922;4.760;2022-11-25T11:30:27;12.60;81.50
20672;DHT22;10495;50.922;4.760;2022-11-25T11:33:05;12.50;80.90
20672;DHT22;10495;50.922;4.760;2022-11-25T11:35:46;12.60;81.40
20672;DHT22;10495;50.922;4.760;2022-11-25T11:41:08;12.60;81.60
20672;DHT22;10495;50.922;4.760;2022-11-25T11:44:02;12.50;82.10
20672;DHT22;10495;50.922;4.760;2022-11-25T11:49:37;12.50;82.60
20672;DHT22;10495;50.922;4.760;2022-11-25T11:54:45;12.70;81.50
20672;DHT22;10495;50.922;4.760;2022-11-25T11:57:38;12.80;81.30
20672;DHT22;10495;50.922;4.760;2022-11-25T12:00:11;12.70;81.30
20672;DHT22;10495;50.922;4.760;2022-11-25T12:03:00;12.70;81.00
20672;DHT22;10495;50.922;4.760;2022-11-25T12:05:28;12.60;81.50
20672;DHT22;10495;50.922;4.760;2022-11-25T12:27:02;12.70;80.80
20672;DHT22;10495;50.922;4.760;2022-11-25T12:29:43;12.80;79.90
20672;DHT22;10495;50.922;4.760;2022-11-25T12:37:49;12.90;80.00
20672;DHT22;10495;50.922;4.760;2022-11-25T12:40:32;12.80;80.10
20672;DHT22;10495;50.922;4.760;2022-11-25T12:45:59;12.80;81.10
20672;DHT22;10495;50.922;4.760;2022-11-25T12:48:27;12.90;80.60
20672;DHT22;10495;50.922;4.760;2022-11-25T12:51:02;12.90;80.30
20672;DHT22;10495;50.922;4.760;2022-11-25T12:53:38;12.80;81.30
20672;DHT22;10495;50.922;4.760;2022-11-25T12:56:17;12.80;81.10
20672;DHT22;10495;50.922;4.760;2022-11-25T12:59:27;13.00;80.70
20672;DHT22;10495;50.922;4.760;2022-11-25T13:10:31;12.70;81.30
20672;DHT22;10495;50.922;4.760;2022-11-25T13:15:40;12.80;81.10
20672;DHT22;10495;50.922;4.760;2022-11-25T13:18:16;13.10;80.90
20672;DHT22;10495;50.922;4.760;2022-11-25T13:20:46;13.10;80.50
20672;DHT22;10495;50.922;4.760;2022-11-25T13:25:49;12.90;80.80
20672;DHT22;10495;50.922;4.760;2022-11-25T13:28:36;12.90;81.00
20672;DHT22;10495;50.922;4.760;2022-11-25T13:31:23;12.80;81.70
20672;DHT22;10495;50.922;4.760;2022-11-25T13:36:25;12.80;82.20
20672;DHT22;10495;50.922;4.760;2022-11-25T13:39:12;12.80;82.20
20672;DHT22;10495;50.922;4.760;2022-11-25T13:42:00;12.90;82.20
20672;DHT22;10495;50.922;4.760;2022-11-25T13:44:32;12.90;82.10
20672;DHT22;10495;50.922;4.760;2022-11-25T13:47:22;12.80;82.20
20672;DHT22;10495;50.922;4.760;2022-11-25T13:54:49;13.00;81.70
20672;DHT22;10495;50.922;4.760;2022-11-25T13:57:27;13.10;81.30
20672;DHT22;10495;50.922;4.760;2022-11-25T14:00:07;13.00;81.40
20672;DHT22;10495;50.922;4.760;2022-11-25T14:02:39;13.00;81.10
20672;DHT22;10495;50.922;4.760;2022-11-25T14:05:44;12.90;81.70
20672;DHT22;10495;50.922;4.760;2022-11-25T14:10:50;12.50;82.80
20672;DHT22;10495;50.922;4.760;2022-11-25T14:19:21;12.30;83.70
20672;DHT22;10495;50.922;4.760;2022-11-25T14:24:47;12.50;83.40
20672;DHT22;10495;50.922;4.760;2022-11-25T14:27:18;12.40;83.70
20672;DHT22;10495;50.922;4.760;2022-11-25T14:29:54;12.30;83.70
20672;DHT22;10495;50.922;4.760;2022-11-25T14:32:29;12.30;83.80
20672;DHT22;10495;50.922;4.760;2022-11-25T14:35:03;12.40;83.80
20672;DHT22;10495;50.922;4.760;2022-11-25T14:40:18;12.50;83.30
20672;DHT22;10495;50.922;4.760;2022-11-25T14:42:48;12.50;83.30
20672;DHT22;10495;50.922;4.760;2022-11-25T14:45:27;12.40;83.70
20672;DHT22;10495;50.922;4.760;2022-11-25T14:47:56;12.40;84.00
20672;DHT22;10495;50.922;4.760;2022-11-25T14:50:22;12.40;84.50
20672;DHT22;10495;50.922;4.760;2022-11-25T14:52:48;12.40;84.50
20672;DHT22;10495;50.922;4.760;2022-11-25T14:55:29;12.20;85.00
20672;DHT22;10495;50.922;4.760;2022-11-25T14:57:55;12.40;84.60
20672;DHT22;10495;50.922;4.760;2022-11-25T15:00:21;12.50;84.20
20672;DHT22;10495;50.922;4.760;2022-11-25T15:02:59;12.30;84.10
20672;DHT22;10495;50.922;4.760;2022-11-25T15:05:31;12.30;84.30
20672;DHT22;10495;50.922;4.760;2022-11-25T15:10:35;12.30;84.10
20672;DHT22;10495;50.922;4.760;2022-11-25T15:13:10;12.20;83.90
20672;DHT22;10495;50.922;4.760;2022-11-25T15:15:36;12.20;84.80
20672;DHT22;10495;50.922;4.760;2022-11-25T15:18:05;11.90;85.40
20672;DHT22;10495;50.922;4.760;2022-11-25T15:20:32;11.90;86.20
20672;DHT22;10495;50.922;4.760;2022-11-25T15:23:00;11.90;85.90
20672;DHT22;10495;50.922;4.760;2022-11-25T15:25:26;12.10;85.90
20672;DHT22;10495;50.922;4.760;2022-11-25T15:27:51;12.20;85.70
20672;DHT22;10495;50.922;4.760;2022-11-25T15:30:23;12.10;85.50
20672;DHT22;10495;50.922;4.760;2022-11-25T15:32:49;12.10;85.70
20672;DHT22;10495;50.922;4.760;2022-11-25T15:35:18;12.20;85.80
20672;DHT22;10495;50.922;4.760;2022-11-25T15:37:45;12.10;85.70
20672;DHT22;10495;50.922;4.760;2022-11-25T15:40:37;11.90;86.10
20672;DHT22;10495;50.922;4.760;2022-11-25T15:43:23;11.80;86.30
20672;DHT22;10495;50.922;4.760;2022-11-25T15:45:51;11.90;86.40
20672;DHT22;10495;50.922;4.760;2022-11-25T15:51:20;11.70;86.70
20672;DHT22;10495;50.922;4.760;2022-11-25T15:54:02;11.60;87.00
20672;DHT22;10495;50.922;4.760;2022-11-25T15:56:30;11.70;86.80
20672;DHT22;10495;50.922;4.760;2022-11-25T15:58:56;11.80;86.20
20672;DHT22;10495;50.922;4.760;2022-11-25T16:01:23;11.80;86.20
20672;DHT22;10495;50.922;4.760;2022-11-25T16:03:51;11.70;86.50
20672;DHT22;10495;50.922;4.760;2022-11-25T16:06:27;11.70;86.30
20672;DHT22;10495;50.922;4.760;2022-11-25T16:11:21;11.70;86.20
20672;DHT22;10495;50.922;4.760;2022-11-25T16:13:50;11.50;86.90
20672;DHT22;10495;50.922;4.760;2022-11-25T16:16:27;11.30;87.60
20672;DHT22;10495;50.922;4.760;2022-11-25T16:21:37;11.20;88.10
20672;DHT22;10495;50.922;4.760;2022-11-25T16:26:37;11.30;87.70
20672;DHT22;10495;50.922;4.760;2022-11-25T16:29:36;11.30;87.30
20672;DHT22;10495;50.922;4.760;2022-11-25T16:32:14;11.30;87.50
20672;DHT22;10495;50.922;4.760;2022-11-25T16:34:40;11.30;87.50
20672;DHT22;10495;50.922;4.760;2022-11-25T16:37:06;11.40;87.10
20672;DHT22;10495;50.922;4.760;2022-11-25T16:39:31;11.30;87.50
20672;DHT22;10495;50.922;4.760;2022-11-25T16:41:59;11.30;87.00
20672;DHT22;10495;50.922;4.760;2022-11-25T16:44:33;11.30;87.30
20672;DHT22;10495;50.922;4.760;2022-11-25T16:47:00;11.10;87.50
20672;DHT22;10495;50.922;4.760;2022-11-25T16:49:28;11.10;87.60
20672;DHT22;10495;50.922;4.760;2022-11-25T16:51:54;10.90;87.60
20672;DHT22;10495;50.922;4.760;2022-11-25T16:54:21;11.00;87.90
20672;DHT22;10495;50.922;4.760;2022-11-25T16:56:57;10.80;88.70
20672;DHT22;10495;50.922;4.760;2022-11-25T16:59:35;11.00;88.30
20672;DHT22;10495;50.922;4.760;2022-11-25T17:02:01;11.10;87.50
20672;DHT22;10495;50.922;4.760;2022-11-25T17:04:27;11.00;88.10
20672;DHT22;10495;50.922;4.760;2022-11-25T17:06:54;10.80;88.80
20672;DHT22;10495;50.922;4.760;2022-11-25T17:09:20;10.80;88.70
20672;DHT22;10495;50.922;4.760;2022-11-25T17:11:48;10.80;88.70
20672;DHT22;10495;50.922;4.760;2022-11-25T17:14:25;10.70;89.00
20672;DHT22;10495;50.922;4.760;2022-11-25T17:16:51;10.80;88.70
20672;DHT22;10495;50.922;4.760;2022-11-25T17:19:17;10.80;88.80
20672;DHT22;10495;50.922;4.760;2022-11-25T17:21:43;10.80;89.00
20672;DHT22;10495;50.922;4.760;2022-11-25T17:24:27;10.70;89.40
20672;DHT22;10495;50.922;4.760;2022-11-25T17:26:59;10.80;88.70
20672;DHT22;10495;50.922;4.760;2022-11-25T17:29:38;10.70;89.00
20672;DHT22;10495;50.922;4.760;2022-11-25T17:32:05;10.70;89.60
20672;DHT22;10495;50.922;4.760;2022-11-25T17:34:31;10.70;89.30
20672;DHT22;10495;50.922;4.760;2022-11-25T17:36:57;10.70;89.30
20672;DHT22;10495;50.922;4.760;2022-11-25T17:39:22;10.70;89.40
20672;DHT22;10495;50.922;4.760;2022-11-25T17:41:49;10.70;89.10